TDCF/DCF METAR and TAF weather

Enter ICAO airport designator
Station Type Date Time Source
TDCF METAR 2020/01/19 14:00 UTC NOAA

TDCF 191400Z 11014G27KT 9999 FEW021 28/17 Q1016


Station Type Date Time Source
TDCF Decoded METAR 2020/01/19 14:00 UTC NOAA

Canefield Airport, Dominica (TDCF) 15-32N 061-24W 5M
Jan 19, 2020 - 09:00 AM EST / 2020.01.19 1400 UTC
Wind: from the ESE (110 degrees) at 16 MPH (14 KT) gusting to 31 MPH (27 KT):0
Visibility: greater than 7 mile(s):0
Sky conditions: mostly clear
Temperature: 82 F (28 C)
Dew Point: 62 F (17 C)
Relative Humidity: 51%
Pressure (altimeter): 30.00 in. Hg (1016 hPa)
ob: TDCF 191400Z 11014G27KT 9999 FEW021 28/17 Q1016
cycle: 14

Station Type Date Time Source
TDCF TAF 2012/05/01 18:15 UTC NOAA

TAF TDCF 011600Z 0118/0218 110010KT 9999 SCT018 BKN030
TEMPO 0118/0206 6000 SHRA BKN014 BKN070

Example: see airport list